Time;durP1;ratioP1;P1;durP2;ratioP2;P2;SDS_P1;SDS_P2;PMS_P1;PMS_P2;Temp;Humidity;BMP_temperature;BMP_pressure;BME280_temperature;BME280_humidity;BME280_pressure;Samples;Min_cycle;Max_cycle;Signal;HPM_P1;HPM_P2
2023/03/27 00:00:42;;;;;;;;;1.33;1.33;;;;;10.53;89.42;101014.44;4907018;29;45310;-82
2023/03/27 00:03:11;;;;;;;;;1.67;1.67;;;;;10.64;91.47;101018.16;4888785;29;48351;-82
2023/03/27 00:05:37;;;;;;;;;2.67;1.00;;;;;10.57;92.07;101019.81;4887447;29;45514;-81
2023/03/27 00:08:04;;;;;;;;;2.33;1.00;;;;;10.63;92.26;101028.78;4888443;29;45485;-82
2023/03/27 00:10:30;;;;;;;;;1.00;1.00;;;;;10.66;92.07;101035.03;4890479;29;45464;-82
2023/03/27 00:12:56;;;;;;;;;2.00;2.00;;;;;10.64;88.18;101050.06;4888003;29;45378;-81
2023/03/27 00:15:22;;;;;;;;;2.00;2.00;;;;;10.66;92.22;101037.69;4889441;29;45367;-82
2023/03/27 00:17:50;;;;;;;;;1.00;1.00;;;;;10.75;87.58;101053.84;4889216;29;45433;-83
2023/03/27 00:20:21;;;;;;;;;1.00;1.00;;;;;10.69;92.36;101068.81;4891584;29;45491;-83
2023/03/27 00:22:55;;;;;;;;;4.00;2.67;;;;;10.76;92.15;101076.00;4890817;29;46291;-83
2023/03/27 00:25:27;;;;;;;;;2.00;2.00;;;;;10.65;87.62;101083.81;4874799;29;45411;-82
2023/03/27 00:27:55;;;;;;;;;3.00;2.33;;;;;10.46;89.32;101092.28;4873889;29;45565;-83
2023/03/27 00:30:21;;;;;;;;;6.00;2.67;;;;;10.42;89.78;101101.94;4890986;29;45439;-81
2023/03/27 00:32:47;;;;;;;;;2.00;2.00;;;;;10.41;89.13;101102.81;4890731;29;46165;-82
2023/03/27 00:35:13;;;;;;;;;2.00;2.00;;;;;10.38;91.79;101106.31;4874295;29;45637;-82
2023/03/27 00:37:41;;;;;;;;;4.67;2.00;;;;;10.38;92.75;101109.00;4890149;29;45351;-81
2023/03/27 00:40:16;;;;;;;;;1.00;1.00;;;;;10.44;92.70;101121.50;4880416;29;45856;-81
2023/03/27 00:42:42;;;;;;;;;2.00;2.00;;;;;10.39;92.71;101113.44;4889689;29;46114;-81
2023/03/27 00:45:15;;;;;;;;;3.00;3.00;;;;;10.55;93.44;101117.31;4908892;29;45506;-83
2023/03/27 00:47:41;;;;;;;;;3.00;2.00;;;;;10.41;89.95;101119.66;4907364;29;45380;-82
2023/03/27 00:50:12;;;;;;;;;2.00;1.33;;;;;10.44;91.01;101117.94;4893538;29;45519;-82
2023/03/27 00:52:43;;;;;;;;;1.33;1.00;;;;;10.44;93.05;101121.50;4892627;29;48057;-81
2023/03/27 00:55:15;;;;;;;;;8.00;2.00;;;;;10.53;91.47;101121.69;4894612;29;45351;-82
2023/03/27 00:57:43;;;;;;;;;3.33;3.33;;;;;10.47;92.63;101126.88;4911107;29;45701;-82
2023/03/27 01:00:15;;;;;;;;;2.00;2.00;;;;;10.41;93.55;101132.97;4909037;29;44864;-81
2023/03/27 01:02:43;;;;;;;;;1.33;1.33;;;;;10.34;94.25;101138.13;4907236;29;47405;-82
2023/03/27 01:05:14;;;;;;;;;3.33;2.00;;;;;10.48;93.04;101141.97;4910518;29;45422;-82
2023/03/27 01:07:40;;;;;;;;;1.67;1.67;;;;;10.37;94.37;101141.75;4909722;29;45679;-83
2023/03/27 01:10:07;;;;;;;;;1.33;1.33;;;;;10.47;95.48;101150.81;4910329;29;45520;-83
2023/03/27 01:12:48;;;;;;;;;1.00;1.00;;;;;10.50;93.85;101152.63;4892647;29;48452;-82
2023/03/27 01:15:39;;;;;;;;;1.00;1.00;;;;;10.58;94.30;101165.25;4908943;29;45458;-81
2023/03/27 01:18:50;;;;;;;;;3.67;3.00;;;;;10.60;95.46;101167.91;4892672;29;45365;-82
2023/03/27 01:21:37;;;;;;;;;3.67;2.00;;;;;10.41;96.16;101174.63;4905883;29;45417;-81
2023/03/27 01:24:33;;;;;;;;;2.33;2.33;;;;;10.56;93.62;101171.38;4909491;29;45460;-81
2023/03/27 01:27:29;;;;;;;;;2.00;2.00;;;;;10.39;94.39;101176.34;4908148;29;45786;-81
2023/03/27 01:30:17;;;;;;;;;2.00;1.33;;;;;10.30;95.13;101170.81;4910243;29;45404;-82
2023/03/27 01:33:20;;;;;;;;;2.00;2.00;;;;;10.35;96.56;101185.13;4892033;29;45418;-83
2023/03/27 01:36:08;;;;;;;;;2.33;2.33;;;;;10.26;97.84;101182.22;4908459;29;47246;-82
2023/03/27 01:38:55;;;;;;;;;1.67;1.67;;;;;10.30;98.63;101194.75;4892957;29;45731;-83
2023/03/27 01:41:36;;;;;;;;;4.67;2.00;;;;;10.20;97.33;101197.19;4906852;29;45444;-82
2023/03/27 01:44:12;;;;;;;;;2.00;0.00;;;;;10.04;99.13;101189.72;4908065;29;45540;-82
2023/03/27 01:46:41;;;;;;;;;4.00;1.67;;;;;10.05;98.28;101201.22;4908424;29;46407;-81
2023/03/27 01:49:30;;;;;;;;;1.00;1.00;;;;;10.00;97.94;101209.09;4907343;29;45732;-83
2023/03/27 01:52:00;;;;;;;;;3.00;3.00;;;;;9.92;99.50;101208.91;4908362;29;45308;-83
2023/03/27 01:54:33;;;;;;;;;2.00;2.00;;;;;9.97;100.00;101209.00;4908906;29;44891;-82
2023/03/27 01:57:16;;;;;;;;;1.67;1.67;;;;;9.94;99.60;101215.16;4908964;29;46251;-83
2023/03/27 01:59:47;;;;;;;;;7.00;4.00;;;;;9.92;100.00;101216.00;4906698;29;45724;-81
2023/03/27 02:02:23;;;;;;;;;3.00;3.00;;;;;9.92;100.00;101213.34;4889790;29;45509;-81
2023/03/27 02:05:03;;;;;;;;;3.67;2.67;;;;;9.87;100.00;101213.19;4871913;29;45399;-82
2023/03/27 02:07:38;;;;;;;;;3.00;2.00;;;;;9.82;100.00;101215.75;4888725;29;46242;-83
2023/03/27 02:10:08;;;;;;;;;1.67;1.00;;;;;9.79;100.00;101220.09;4888540;29;45512;-83
2023/03/27 02:12:40;;;;;;;;;1.00;1.00;;;;;9.80;100.00;101214.81;4873256;29;45377;-82
2023/03/27 02:15:11;;;;;;;;;2.00;2.00;;;;;9.76;100.00;101225.34;4890118;29;45390;-80
2023/03/27 02:17:55;;;;;;;;;1.00;1.00;;;;;9.86;100.00;101227.38;4889104;29;46513;-82
2023/03/27 02:20:23;;;;;;;;;3.00;3.00;;;;;9.80;100.00;101222.78;4890498;29;45429;-83
2023/03/27 02:22:52;;;;;;;;;3.33;2.00;;;;;9.88;100.00;101246.00;4872112;29;45392;-82
2023/03/27 02:25:34;;;;;;;;;2.00;2.00;;;;;9.89;100.00;101238.06;4888961;29;45414;-83
2023/03/27 02:28:25;;;;;;;;;3.00;1.00;;;;;9.84;100.00;101245.03;4887506;29;45867;-81
2023/03/27 02:30:50;;;;;;;;;1.67;1.67;;;;;9.64;100.00;101252.47;4887400;29;45421;-83
2023/03/27 02:33:34;;;;;;;;;3.33;2.33;;;;;9.74;100.00;101248.31;4887934;29;45415;-81
2023/03/27 02:36:07;;;;;;;;;2.00;1.00;;;;;9.57;100.00;101253.16;4872503;29;45471;-82
2023/03/27 02:38:43;;;;;;;;;2.33;1.00;;;;;9.68;100.00;101253.47;4888496;29;45451;-83
2023/03/27 02:41:12;;;;;;;;;4.00;4.00;;;;;9.70;100.00;101252.63;4888058;29;45881;-82
2023/03/27 02:43:52;;;;;;;;;4.00;2.67;;;;;9.66;100.00;101256.06;4887402;29;45454;-83
2023/03/27 02:46:43;;;;;;;;;1.00;1.00;;;;;9.72;100.00;101256.22;4888000;29;45478;-81
2023/03/27 02:49:15;;;;;;;;;6.00;1.67;;;;;9.69;100.00;101258.78;4902858;29;45504;-81
2023/03/27 02:51:47;;;;;;;;;1.00;1.00;;;;;9.72;100.00;101266.84;4889984;29;45965;-81
2023/03/27 02:54:18;;;;;;;;;1.67;1.67;;;;;9.68;100.00;101264.09;4906202;29;45871;-81
2023/03/27 02:56:50;;;;;;;;;2.00;2.00;;;;;9.71;100.00;101265.03;4906364;29;45346;-81
2023/03/27 02:59:34;;;;;;;;;1.67;1.00;;;;;9.75;100.00;101272.22;4905983;29;45405;-82
2023/03/27 03:02:08;;;;;;;;;2.00;0.67;;;;;9.75;100.00;101277.53;4888527;29;45457;-82
2023/03/27 03:04:41;;;;;;;;;1.00;1.00;;;;;9.71;100.00;101283.63;4888806;29;45402;-82
2023/03/27 03:07:10;;;;;;;;;0.50;0.50;;;;;9.69;100.00;101285.34;4889441;29;45566;-82
2023/03/27 03:09:39;;;;;;;;;2.00;1.00;;;;;9.81;100.00;101285.66;4906371;29;45514;-84
2023/03/27 03:12:06;;;;;;;;;1.00;1.00;;;;;9.85;100.00;101285.75;4889217;29;45442;-81
2023/03/27 03:14:38;;;;;;;;;2.33;2.33;;;;;9.91;100.00;101283.25;4889722;29;45458;-82
2023/03/27 03:17:04;;;;;;;;;1.00;1.00;;;;;9.76;100.00;101286.44;4905355;29;45541;-82
2023/03/27 03:19:29;;;;;;;;;2.67;2.00;;;;;9.80;100.00;101294.50;4907328;29;45647;-83
2023/03/27 03:21:59;;;;;;;;;1.67;1.67;;;;;9.79;100.00;101295.34;4904911;29;45873;-82
2023/03/27 03:24:26;;;;;;;;;2.00;1.00;;;;;9.75;100.00;101306.75;4889856;29;45269;-81
2023/03/27 03:26:51;;;;;;;;;1.00;0.67;;;;;9.60;100.00;101298.41;4906035;29;45382;-82
2023/03/27 03:29:18;;;;;;;;;3.67;2.00;;;;;9.67;100.00;101302.13;4907197;29;45387;-81
2023/03/27 03:31:50;;;;;;;;;2.33;2.33;;;;;9.59;100.00;101301.91;4891707;29;45488;-82
2023/03/27 03:34:17;;;;;;;;;1.00;1.00;;;;;9.61;100.00;101305.50;4906436;29;45326;-82
2023/03/27 03:36:47;;;;;;;;;2.00;0.67;;;;;9.69;100.00;101306.59;4889448;29;44853;-81
2023/03/27 03:39:14;;;;;;;;;0.00;0.00;;;;;9.64;100.00;101318.88;4886634;29;47234;-81
2023/03/27 03:41:40;;;;;;;;;2.00;2.00;;;;;9.69;100.00;101330.50;4887023;29;45482;-81
2023/03/27 03:44:06;;;;;;;;;1.00;1.00;;;;;9.68;100.00;101333.13;4884956;29;45494;-81
2023/03/27 03:46:32;;;;;;;;;1.00;1.00;;;;;9.72;100.00;101341.22;4873161;29;45419;-81
2023/03/27 03:49:03;;;;;;;;;2.33;2.00;;;;;9.86;100.00;101338.06;4903660;29;47218;-81
2023/03/27 03:51:30;;;;;;;;;2.00;1.00;;;;;9.76;100.00;101345.75;4903051;29;46084;-83
2023/03/27 03:53:56;;;;;;;;;6.67;3.67;;;;;9.72;100.00;101333.25;4889489;29;45514;-82
2023/03/27 03:56:26;;;;;;;;;1.33;1.33;;;;;9.87;100.00;101345.16;4886626;29;45618;-83
2023/03/27 03:58:52;;;;;;;;;1.00;1.00;;;;;9.72;100.00;101351.84;4887641;29;46581;-82
2023/03/27 04:01:19;;;;;;;;;1.00;1.00;;;;;9.86;100.00;101365.50;4887380;29;44920;-81
2023/03/27 04:03:46;;;;;;;;;2.33;2.00;;;;;9.75;100.00;101374.94;4888105;29;45820;-83
2023/03/27 04:06:11;;;;;;;;;1.33;1.33;;;;;9.66;100.00;101364.97;4871915;29;44826;-81
2023/03/27 04:08:37;;;;;;;;;2.00;1.00;;;;;9.66;100.00;101366.72;4878472;29;48137;-82
2023/03/27 04:11:03;;;;;;;;;1.67;1.00;;;;;9.67;100.00;101381.78;4865549;29;45448;-81
2023/03/27 04:13:29;;;;;;;;;1.00;1.00;;;;;9.63;100.00;101383.44;4867435;29;45423;-84
2023/03/27 04:15:55;;;;;;;;;0.00;0.00;;;;;9.56;100.00;101376.19;4852111;29;45449;-81
2023/03/27 04:18:23;;;;;;;;;2.00;1.00;;;;;9.61;100.00;101393.13;4868627;29;45589;-81
2023/03/27 04:20:49;;;;;;;;;0.33;0.33;;;;;9.58;100.00;101391.28;4869803;29;45307;-81
2023/03/27 04:23:18;;;;;;;;;1.00;1.00;;;;;9.57;100.00;101400.13;4870568;29;45367;-81
2023/03/27 04:25:46;;;;;;;;;1.00;1.00;;;;;9.65;100.00;101402.09;4883818;29;45483;-81
2023/03/27 04:28:15;;;;;;;;;2.67;2.67;;;;;9.49;100.00;101404.28;4867569;29;48144;-82
2023/03/27 04:30:42;;;;;;;;;3.00;1.00;;;;;9.48;100.00;101399.84;4870001;29;45383;-82
2023/03/27 04:33:17;;;;;;;;;2.00;2.00;;;;;9.43;100.00;101403.22;4868559;29;45471;-81
2023/03/27 04:35:43;;;;;;;;;1.00;1.00;;;;;9.46;100.00;101412.19;4870584;29;45501;-82
2023/03/27 04:38:13;;;;;;;;;2.00;1.00;;;;;9.55;100.00;101408.88;4879729;29;45468;-83
2023/03/27 04:40:39;;;;;;;;;1.00;1.00;;;;;9.49;100.00;101427.31;4887955;29;45394;-82
2023/03/27 04:43:06;;;;;;;;;2.67;1.00;;;;;9.51;100.00;101423.81;4889329;29;45391;-82
2023/03/27 04:45:32;;;;;;;;;3.00;2.33;;;;;9.54;100.00;101431.00;4889589;29;45403;-81
2023/03/27 04:47:58;;;;;;;;;1.00;1.00;;;;;9.62;100.00;101429.47;4888095;29;46585;-82
2023/03/27 04:50:23;;;;;;;;;1.33;1.33;;;;;9.69;100.00;101436.75;4889140;29;45432;-81
2023/03/27 04:52:50;;;;;;;;;2.00;2.00;;;;;9.75;100.00;101428.06;4887987;29;45386;-83
2023/03/27 04:55:17;;;;;;;;;0.00;0.00;;;;;9.80;100.00;101443.28;4875802;29;45459;-81
2023/03/27 04:57:46;;;;;;;;;1.00;1.00;;;;;9.89;100.00;101439.97;4873026;29;47683;-83
2023/03/27 05:00:18;;;;;;;;;3.33;1.00;;;;;9.86;100.00;101447.88;4890856;29;45362;-82
2023/03/27 05:02:47;;;;;;;;;1.00;1.00;;;;;9.88;100.00;101459.44;4889364;29;45437;-80
2023/03/27 05:05:16;;;;;;;;;1.00;1.00;;;;;9.80;100.00;101450.34;4891582;29;45528;-83
2023/03/27 05:07:45;;;;;;;;;1.00;1.00;;;;;9.79;100.00;101459.16;4891584;29;46001;-82
2023/03/27 05:10:11;;;;;;;;;1.00;1.00;;;;;9.63;100.00;101462.22;4874699;29;45499;-81
2023/03/27 05:12:48;;;;;;;;;0.67;0.67;;;;;9.71;100.00;101471.31;4874593;29;45461;-82
2023/03/27 05:15:15;;;;;;;;;1.00;0.67;;;;;9.61;100.00;101471.06;4891679;29;45419;-83
2023/03/27 05:17:42;;;;;;;;;2.00;2.00;;;;;9.56;100.00;101469.13;4874198;29;47395;-82
2023/03/27 05:20:11;;;;;;;;;2.00;0.33;;;;;9.64;100.00;101469.38;4874876;29;45534;-81
2023/03/27 05:22:37;;;;;;;;;1.00;1.00;;;;;9.65;100.00;101474.69;4889183;29;45375;-80
2023/03/27 05:25:03;;;;;;;;;3.00;1.00;;;;;9.64;100.00;101487.94;4874265;29;45392;-81
2023/03/27 05:27:29;;;;;;;;;3.33;2.67;;;;;9.69;100.00;101481.91;4889236;29;45510;-82
2023/03/27 05:29:57;;;;;;;;;2.00;1.00;;;;;9.67;100.00;101482.72;4887933;29;45312;-82
2023/03/27 05:32:23;;;;;;;;;3.00;1.33;;;;;9.60;100.00;101481.66;4889905;29;45478;-82
2023/03/27 05:34:53;;;;;;;;;2.00;0.33;;;;;9.74;100.00;101493.56;4890065;29;45736;-82
2023/03/27 05:37:22;;;;;;;;;1.00;1.00;;;;;9.71;100.00;101498.78;4874848;29;47533;-83
2023/03/27 05:39:47;;;;;;;;;2.00;1.00;;;;;9.59;100.00;101496.69;4891716;29;45487;-82
2023/03/27 05:42:13;;;;;;;;;1.00;1.00;;;;;9.59;100.00;101499.34;4891148;29;45410;-84
2023/03/27 05:44:43;;;;;;;;;1.67;1.67;;;;;9.53;100.00;101499.16;4892621;29;44943;-82
2023/03/27 05:47:11;;;;;;;;;1.00;1.00;;;;;9.59;100.00;101511.69;4895787;29;45442;-81
2023/03/27 05:49:36;;;;;;;;;5.33;1.33;;;;;9.43;100.00;101506.75;4892835;29;45572;-84
2023/03/27 05:52:09;;;;;;;;;1.00;1.00;;;;;9.58;100.00;101517.88;4892601;29;45489;-81
2023/03/27 05:54:35;;;;;;;;;1.00;1.00;;;;;9.38;100.00;101509.28;4894029;29;45857;-83
2023/03/27 05:57:09;;;;;;;;;0.33;0.33;;;;;9.56;100.00;101509.84;4892331;29;46127;-82
2023/03/27 05:59:34;;;;;;;;;2.67;2.67;;;;;9.50;100.00;101514.09;4892041;29;45594;-83
2023/03/27 06:02:00;;;;;;;;;2.00;2.00;;;;;9.52;100.00;101513.28;4893656;29;45814;-83
2023/03/27 06:04:29;;;;;;;;;1.33;1.33;;;;;9.72;100.00;101523.59;4895532;29;45501;-82
2023/03/27 06:06:55;;;;;;;;;2.00;2.00;;;;;9.55;100.00;101517.75;4892214;29;47179;-84
2023/03/27 06:09:22;;;;;;;;;2.33;2.00;;;;;9.70;100.00;101523.56;4893224;29;45422;-82
2023/03/27 06:11:48;;;;;;;;;1.00;1.00;;;;;9.60;100.00;101533.00;4877529;29;45418;-83
2023/03/27 06:14:13;;;;;;;;;1.33;1.33;;;;;9.64;100.00;101539.31;4894034;29;45532;-83
2023/03/27 06:16:39;;;;;;;;;1.00;1.00;;;;;9.72;100.00;101539.53;4893230;29;45974;-83
2023/03/27 06:19:04;;;;;;;;;1.00;1.00;;;;;9.67;100.00;101543.81;4874062;29;45400;-82
2023/03/27 06:21:30;;;;;;;;;4.33;2.33;;;;;9.77;100.00;101552.09;4894261;29;45722;-85
2023/03/27 06:23:55;;;;;;;;;2.00;2.00;;;;;9.68;100.00;101545.63;4877588;29;45347;-82
2023/03/27 06:26:21;;;;;;;;;1.67;1.67;;;;;9.65;100.00;101546.41;4876905;29;46560;-82
2023/03/27 06:28:47;;;;;;;;;3.00;1.67;;;;;9.66;100.00;101557.94;4893283;29;45508;-84
2023/03/27 06:31:13;;;;;;;;;0.00;0.00;;;;;9.58;100.00;101549.75;4893548;29;45440;-82
2023/03/27 06:33:42;;;;;;;;;1.33;1.33;;;;;9.68;100.00;101550.94;4885478;29;44846;-82
2023/03/27 06:36:09;;;;;;;;;5.00;2.33;;;;;9.65;100.00;101569.41;4882802;29;46859;-83
2023/03/27 06:39:07;;;;;;;;;5.00;1.33;;;;;9.79;100.00;101568.97;4882107;29;45559;-82
2023/03/27 06:41:33;;;;;;;;;3.00;1.00;;;;;9.67;100.00;101565.94;4891494;29;45588;-81
2023/03/27 06:44:01;;;;;;;;;1.00;1.00;;;;;9.80;100.00;101565.47;4894920;29;45524;-81
2023/03/27 06:46:29;;;;;;;;;3.00;2.00;;;;;10.10;100.00;101567.25;4894035;29;45319;-82
2023/03/27 06:48:55;;;;;;;;;3.00;3.00;;;;;10.00;100.00;101571.41;4895735;29;45515;-82
2023/03/27 06:51:35;;;;;;;;;1.00;1.00;;;;;10.19;100.00;101578.13;4878233;29;45497;-82
2023/03/27 06:54:11;;;;;;;;;3.00;1.33;;;;;10.21;100.00;101592.38;4859797;29;45409;-82
2023/03/27 06:57:11;;;;;;;;;;;;;;;;;;;;;
2023/03/27 07:00:00;;;;;;;;;1.00;1.00;;;;;10.02;100.00;101574.09;4893210;29;72270;-83
2023/03/27 07:02:46;;;;;;;;;;;;;;;;;;;;;
2023/03/27 07:06:05;;;;;;;;;2.33;2.33;;;;;10.55;100.00;101596.03;4861391;29;64991;-82
2023/03/27 07:09:12;;;;;;;;;2.00;2.00;;;;;10.60;100.00;101591.75;4891954;29;45658;-82
2023/03/27 07:11:42;;;;;;;;;2.33;2.00;;;;;10.66;100.00;101600.75;4876877;29;45457;-80
2023/03/27 07:14:12;;;;;;;;;3.00;2.33;;;;;10.56;100.00;101568.59;4872471;29;44837;-81
2023/03/27 07:20:54;;;;;;;;;;;;;;;;;;;;;
2023/03/27 07:23:28;;;;;;;;;6.67;2.00;;;;;10.69;100.00;101579.56;4847703;29;73329;-81
2023/03/27 07:26:26;;;;;;;;;1.67;1.67;;;;;10.78;100.00;101599.31;4828947;29;45406;-82
2023/03/27 07:28:51;;;;;;;;;0.33;0.33;;;;;10.38;100.00;101563.66;4854539;29;45478;-82
2023/03/27 07:31:19;;;;;;;;;1.33;1.33;;;;;10.38;100.00;101570.72;4849712;29;45580;-83
2023/03/27 07:33:46;;;;;;;;;1.33;1.33;;;;;10.34;100.00;101560.84;4836788;29;45641;-81
2023/03/27 07:36:15;;;;;;;;;1.33;1.33;;;;;10.57;100.00;101583.69;4816471;29;45441;-80
2023/03/27 07:38:41;;;;;;;;;2.00;2.00;;;;;10.76;100.00;101601.03;4847101;29;45461;-81
2023/03/27 07:41:12;;;;;;;;;2.67;2.67;;;;;10.78;95.44;101574.47;4834469;29;46904;-83
2023/03/27 07:43:41;;;;;;;;;1.33;1.33;;;;;10.87;100.00;101604.00;4849616;29;44756;-83
2023/03/27 07:46:07;;;;;;;;;4.00;3.00;;;;;10.87;99.75;101590.69;4869686;29;45339;-81
2023/03/27 07:48:35;;;;;;;;;1.00;1.00;;;;;10.97;97.52;101587.41;4869972;29;45385;-82
2023/03/27 07:51:31;;;;;;;;;3.00;2.00;;;;;11.23;97.42;101600.50;4870264;29;45567;-80
2023/03/27 07:54:03;;;;;;;;;1.33;1.33;;;;;11.17;90.13;101579.03;4862594;29;45495;-81
2023/03/27 07:56:37;;;;;;;;;2.33;1.33;;;;;11.27;92.20;101626.34;4852088;29;45007;-82
2023/03/27 08:09:56;;;;;;;;;1.67;1.00;;;;;11.45;83.97;101623.22;4798573;29;45700;-82
2023/03/27 08:13:21;;;;;;;;;1.00;1.00;;;;;11.58;87.01;101637.75;4801794;29;45578;-82
2023/03/27 08:26:06;;;;;;;;;2.33;1.00;;;;;11.56;84.10;101636.81;4758494;29;45551;-80
2023/03/27 08:39:01;;;;;;;;;4.67;1.00;;;;;11.66;78.50;101665.47;5011995;23;45549;-80
2023/03/27 08:54:08;;;;;;;;;2.33;2.33;;;;;11.73;73.62;101672.75;4837978;29;45425;-82
2023/03/27 08:56:36;;;;;;;;;1.00;1.00;;;;;11.81;77.70;101696.91;4821588;29;45416;-83
2023/03/27 08:59:02;;;;;;;;;3.33;2.00;;;;;11.70;73.14;101694.00;4833293;29;45508;-81
2023/03/27 09:02:07;;;;;;;;;0.00;0.00;;;;;11.98;79.04;101708.94;4815593;29;46889;-83
2023/03/27 09:05:05;;;;;;;;;2.00;2.00;;;;;11.86;66.96;101716.59;4831062;29;45736;-82
2023/03/27 09:07:44;;;;;;;;;0.00;0.00;;;;;11.53;71.06;101685.59;4832548;29;45622;-83
2023/03/27 09:10:35;;;;;;;;;1.00;0.00;;;;;11.63;61.57;101721.34;4833154;29;45538;-80
2023/03/27 09:13:38;;;;;;;;;1.67;1.67;;;;;11.66;66.78;101733.88;4819126;29;47314;-80
2023/03/27 09:16:17;;;;;;;;;0.00;0.00;;;;;11.74;67.40;101743.84;4818522;29;45392;-81
2023/03/27 09:18:53;;;;;;;;;1.67;1.67;;;;;11.65;66.11;101706.28;4833227;29;45591;-81
2023/03/27 09:22:01;;;;;;;;;2.00;1.00;;;;;11.87;70.91;101715.72;4841783;29;45528;-81
2023/03/27 09:24:53;;;;;;;;;0.00;0.00;;;;;11.92;59.29;101724.78;4849231;29;46584;-83
2023/03/27 09:31:21;;;;;;;;;1.00;1.00;;;;;12.19;64.59;101737.84;4803764;29;45515;-83
2023/03/27 09:33:49;;;;;;;;;0.67;0.67;;;;;12.08;67.85;101712.72;4855915;29;45639;-81
2023/03/27 09:36:48;;;;;;;;;3.33;1.67;;;;;12.36;64.05;101722.25;4866907;29;45511;-83
2023/03/27 09:39:26;;;;;;;;;0.00;0.00;;;;;12.30;58.63;101738.13;4829048;29;45840;-81
2023/03/27 09:42:09;;;;;;;;;1.00;1.00;;;;;12.35;60.23;101747.13;4866484;29;45432;-81
2023/03/27 09:51:50;;;;;;;;;1.67;1.67;;;;;12.58;55.68;101779.69;4838332;29;45520;-79
2023/03/27 09:54:52;;;;;;;;;0.00;0.00;;;;;12.89;56.40;101774.09;4836013;29;45470;-83
2023/03/27 09:57:17;;;;;;;;;0.33;0.33;;;;;12.61;55.67;101768.16;4819629;29;45696;-84
2023/03/27 10:03:12;;;;;;;;;0.33;0.33;;;;;12.60;53.88;101735.25;4844643;29;45493;-82
2023/03/27 10:05:39;;;;;;;;;8.00;2.00;;;;;12.59;58.42;101727.19;4841957;29;45269;-81
2023/03/27 10:08:39;;;;;;;;;1.00;1.00;;;;;13.00;55.43;101768.09;4858079;29;45317;-83
2023/03/27 10:14:21;;;;;;;;;2.67;1.33;;;;;12.70;57.02;101732.75;4833706;29;45504;-80
2023/03/27 10:16:47;;;;;;;;;1.00;1.00;;;;;12.73;53.87;101754.19;4830824;29;45499;-81
2023/03/27 10:19:43;;;;;;;;;1.00;1.00;;;;;12.86;54.55;101768.69;4831262;29;45332;-83
2023/03/27 10:22:41;;;;;;;;;;;;;;;;;;;;;
2023/03/27 10:25:27;;;;;;;;;0.33;0.33;;;;;12.58;54.98;101777.00;4828864;29;72853;-80
2023/03/27 10:30:36;;;;;;;;;1.67;1.00;;;;;12.81;52.28;101771.28;4913050;23;45379;-84
2023/03/27 10:33:11;;;;;;;;;2.00;1.00;;;;;12.38;48.25;101748.94;4879578;29;46170;-82
2023/03/27 10:38:37;;;;;;;;;0.00;0.00;;;;;12.82;54.47;101738.34;4849479;29;45555;-81
2023/03/27 10:41:16;;;;;;;;;1.00;1.00;;;;;13.09;53.48;101771.81;4834300;29;45894;-81
2023/03/27 10:43:58;;;;;;;;;0.00;0.00;;;;;13.05;53.19;101762.88;4832249;29;47538;-82
2023/03/27 10:46:29;;;;;;;;;0.00;0.00;;;;;13.13;49.04;101773.72;4842589;29;45520;-79
2023/03/27 10:49:31;;;;;;;;;;;;;;;;;;;;;
2023/03/27 10:52:11;;;;;;;;;1.00;1.00;;;;;13.38;52.92;101775.13;4841181;29;65660;-81
2023/03/27 10:55:14;;;;;;;;;1.00;1.00;;;;;13.58;49.79;101781.72;4825191;29;46842;-80
2023/03/27 11:01:27;;;;;;;;;2.00;0.67;;;;;13.45;52.45;101742.28;4720530;30;45843;-82
2023/03/27 11:04:19;;;;;;;;;0.67;0.67;;;;;13.80;51.83;101769.66;4743142;29;45456;-83
2023/03/27 11:06:56;;;;;;;;;1.00;1.00;;;;;13.78;52.85;101744.66;4746421;29;46819;-83
2023/03/27 11:13:22;;;;;;;;;1.00;1.00;;;;;14.06;49.82;101793.25;4748735;30;44846;-83
2023/03/27 11:16:16;;;;;;;;;0.00;0.00;;;;;13.80;48.65;101780.34;4761836;29;45834;-82
2023/03/27 11:18:57;;;;;;;;;1.33;0.00;;;;;13.67;50.38;101772.97;4748937;29;46084;-82
2023/03/27 11:21:56;;;;;;;;;0.00;0.00;;;;;13.70;48.73;101773.03;4757724;29;45594;-81
2023/03/27 11:24:54;;;;;;;;;0.00;0.00;;;;;13.73;48.27;101778.41;4721856;30;45422;-81
2023/03/27 11:28:04;;;;;;;;;0.00;0.00;;;;;14.02;51.20;101812.81;4724154;30;45001;-81
2023/03/27 11:31:04;;;;;;;;;2.33;1.00;;;;;13.72;47.89;101779.31;4669558;30;47854;-78
2023/03/27 11:34:02;;;;;;;;;2.00;1.33;;;;;14.11;48.58;101794.22;4695184;30;45387;-80
2023/03/27 11:36:52;;;;;;;;;2.00;1.00;;;;;13.92;45.92;101800.16;4707818;30;45779;-81
2023/03/27 11:40:06;;;;;;;;;4.33;1.00;;;;;13.94;45.72;101771.66;4731479;29;45661;-81
2023/03/27 11:42:51;;;;;;;;;1.67;1.33;;;;;13.94;48.59;101763.66;4725439;30;46176;-80
2023/03/27 11:45:22;;;;;;;;;2.00;1.00;;;;;14.08;48.06;101762.09;4745134;30;45444;-82
2023/03/27 11:48:18;;;;;;;;;0.67;0.67;;;;;14.46;48.92;101801.94;4734473;29;45424;-82
2023/03/27 11:51:22;;;;;;;;;1.00;1.00;;;;;14.45;48.39;101808.16;4759376;29;45584;-82
2023/03/27 11:54:53;;;;;;;;;1.67;1.67;;;;;14.24;49.42;101794.41;4759419;29;45543;-81
2023/03/27 11:58:16;;;;;;;;;1.00;1.00;;;;;14.35;50.49;101803.53;4709403;30;45430;-81
2023/03/27 12:00:51;;;;;;;;;0.33;0.33;;;;;14.31;45.80;101782.94;4706713;30;45794;-80
2023/03/27 12:07:12;;;;;;;;;0.00;0.00;;;;;14.54;48.00;101813.66;4748599;29;45903;-83
2023/03/27 12:33:04;;;;;;;;;;;;;;;;;;;;;
2023/03/27 12:36:06;;;;;;;;;;;;;;;;;;;;;
2023/03/27 12:38:54;;;;;;;;;0.33;0.33;;;;;15.35;45.11;101821.91;4850385;29;68823;-83
2023/03/27 12:42:14;;;;;;;;;1.33;1.33;;;;;15.43;46.24;101813.03;4835260;29;45639;-82
2023/03/27 12:49:08;;;;;;;;;2.00;1.00;;;;;15.13;46.11;101812.69;4802545;29;45641;-82
2023/03/27 12:52:06;;;;;;;;;0.00;0.00;;;;;15.01;46.15;101825.94;4780478;29;44910;-82
2023/03/27 12:54:56;;;;;;;;;1.00;1.00;;;;;14.70;44.35;101829.97;4780936;29;45200;-81
2023/03/27 13:01:51;;;;;;;;;;;;;;;;;;;;;
2023/03/27 13:11:32;;;;;;;;;;;;;;;;;;;;;
2023/03/27 13:14:29;;;;;;;;;1.00;1.00;;;;;14.96;46.05;101822.28;4851050;29;73135;-83
2023/03/27 13:18:17;;;;;;;;;2.00;1.00;;;;;14.82;47.94;101781.91;4836109;29;45396;-83
2023/03/27 13:20:59;;;;;;;;;1.33;1.00;;;;;15.20;49.71;101814.56;4849426;29;45912;-83
2023/03/27 13:24:13;;;;;;;;;2.00;1.00;;;;;15.25;47.17;101813.72;4850160;29;46804;-82
2023/03/27 13:27:08;;;;;;;;;1.00;1.00;;;;;15.04;47.00;101814.34;4861741;29;45395;-83
2023/03/27 13:33:49;;;;;;;;;1.00;1.00;;;;;15.14;49.49;101768.94;4795839;29;44916;-82
2023/03/27 13:43:36;;;;;;;;;1.00;1.00;;;;;15.26;44.33;101778.00;4764663;29;45668;-80
2023/03/27 13:46:27;;;;;;;;;0.67;0.00;;;;;15.32;44.97;101797.72;4767726;29;45464;-81
2023/03/27 13:49:17;;;;;;;;;1.00;1.00;;;;;15.38;47.56;101805.84;4777472;29;47237;-80
2023/03/27 13:52:10;;;;;;;;;0.00;0.00;;;;;15.52;47.07;101803.31;4763993;29;44840;-80
2023/03/27 13:58:37;;;;;;;;;2.00;2.00;;;;;15.76;46.44;101807.16;4799871;29;45508;-83
2023/03/27 14:02:35;;;;;;;;;;;;;;;;;;;;;
2023/03/27 14:05:34;;;;;;;;;1.67;1.00;;;;;15.78;47.06;101805.41;4728698;30;72140;-82
2023/03/27 14:08:46;;;;;;;;;1.00;1.00;;;;;15.93;48.64;101804.63;4744664;30;45522;-82
2023/03/27 14:11:53;;;;;;;;;;;;;;;;;;;;;
2023/03/27 14:14:29;;;;;;;;;2.33;1.67;;;;;15.99;45.93;101810.06;4743717;30;74534;-82
2023/03/27 14:17:38;;;;;;;;;0.67;0.67;;;;;16.12;47.23;101811.09;4797511;29;45019;-83
2023/03/27 14:20:26;;;;;;;;;0.33;0.00;;;;;16.19;47.37;101816.47;4873809;29;44773;-81
2023/03/27 14:23:45;;;;;;;;;2.00;2.00;;;;;16.38;47.48;101814.84;4883001;29;45470;-81
2023/03/27 14:26:45;;;;;;;;;3.00;1.00;;;;;16.24;45.06;101786.09;4836165;29;45666;-81
2023/03/27 14:29:14;;;;;;;;;0.67;0.67;;;;;15.87;42.63;101775.06;4831030;29;45368;-81
2023/03/27 14:31:43;;;;;;;;;0.00;0.00;;;;;16.06;43.72;101808.31;4817131;29;45523;-81
2023/03/27 14:34:08;;;;;;;;;2.00;1.00;;;;;15.98;45.86;101819.91;4819702;29;45449;-82
2023/03/27 14:36:41;;;;;;;;;0.00;0.00;;;;;16.05;44.98;101819.94;4834800;29;46057;-81
2023/03/27 14:39:22;;;;;;;;;2.00;1.00;;;;;16.03;43.05;101819.03;4817623;29;45349;-81
2023/03/27 14:41:51;;;;;;;;;0.00;0.00;;;;;15.76;42.83;101816.09;4818579;29;45254;-80
2023/03/27 14:44:31;;;;;;;;;0.00;0.00;;;;;15.58;46.15;101819.47;4834567;29;45658;-81